createdAt,value
2019-04-03T00:02:15.958Z,25.27
2019-04-03T00:04:44.144Z,26.53
2019-04-03T00:07:12.411Z,22.87
2019-04-03T00:09:40.505Z,25.53
2019-04-03T00:12:10.299Z,26.60
2019-04-03T00:14:38.580Z,27.57
2019-04-03T00:17:06.287Z,25.50
2019-04-03T00:19:34.527Z,26.33
2019-04-03T00:22:07.998Z,25.37
2019-04-03T00:24:35.926Z,26.27
2019-04-03T00:27:06.925Z,29.10
2019-04-03T00:29:39.927Z,27.70
2019-04-03T00:32:08.146Z,28.77
2019-04-03T00:34:36.440Z,25.47
2019-04-03T00:37:05.962Z,25.47
2019-04-03T00:39:33.744Z,27.23
2019-04-03T00:42:01.385Z,26.83
2019-04-03T00:44:29.030Z,27.53
2019-04-03T00:46:57.114Z,26.93
2019-04-03T00:49:26.449Z,27.43
2019-04-03T00:51:57.103Z,25.97
2019-04-03T00:54:26.958Z,26.80
2019-04-03T00:56:56.487Z,25.20
2019-04-03T00:59:26.367Z,24.80
2019-04-03T01:01:56.491Z,27.87
2019-04-03T01:04:25.293Z,30.17
2019-04-03T01:06:53.540Z,28.17
2019-04-03T01:09:21.748Z,27.07
2019-04-03T01:11:49.582Z,27.00
2019-04-03T01:14:17.402Z,27.10
2019-04-03T01:16:45.919Z,27.80
2019-04-03T01:19:13.926Z,29.20
2019-04-03T01:21:42.050Z,26.70
2019-04-03T01:24:09.996Z,28.13
2019-04-03T01:26:40.403Z,29.13
2019-04-03T01:29:07.884Z,25.60
2019-04-03T01:31:35.650Z,28.47
2019-04-03T01:34:04.198Z,30.07
2019-04-03T01:36:32.342Z,29.53
2019-04-03T01:39:00.643Z,27.67
2019-04-03T01:41:29.128Z,32.53
2019-04-03T01:43:57.225Z,27.03
2019-04-03T01:46:27.255Z,29.20
2019-04-03T01:48:56.726Z,29.53
2019-04-03T01:51:26.244Z,32.00
2019-04-03T01:53:55.187Z,28.67
2019-04-03T01:56:28.029Z,31.70
2019-04-03T01:58:56.190Z,31.27
2019-04-03T02:01:26.242Z,32.13
2019-04-03T02:03:55.300Z,29.67
2019-04-03T02:06:23.547Z,30.00
2019-04-03T02:08:52.033Z,31.93
2019-04-03T02:11:19.783Z,32.40
2019-04-03T02:13:48.126Z,29.53
2019-04-03T02:16:16.268Z,33.87
2019-04-03T02:18:44.189Z,31.87
2019-04-03T02:21:12.028Z,32.53
2019-04-03T02:23:40.348Z,31.37
2019-04-03T02:26:08.350Z,31.50
2019-04-03T02:28:36.260Z,33.20
2019-04-03T02:31:11.279Z,34.97
2019-04-03T02:33:39.427Z,35.80
2019-04-03T02:36:21.988Z,33.93
2019-04-03T02:41:51.298Z,34.43
2019-04-03T02:44:22.010Z,33.17
2019-04-03T02:46:50.158Z,34.50
2019-04-03T02:49:17.953Z,35.80
2019-04-03T02:51:47.326Z,35.00
2019-04-03T02:54:30.119Z,36.33
2019-04-03T02:57:04.719Z,36.53
2019-04-03T02:59:32.561Z,35.27
2019-04-03T03:02:00.666Z,36.27
2019-04-03T03:04:30.652Z,32.27
2019-04-03T03:06:58.470Z,31.70
2019-04-03T03:09:26.549Z,31.87
2019-04-03T03:11:57.698Z,34.23
2019-04-03T03:14:28.200Z,36.80
2019-04-03T03:16:58.999Z,31.97
2019-04-03T03:19:27.801Z,32.60
2019-04-03T03:21:59.854Z,33.97
2019-04-03T03:24:30.030Z,34.67
2019-04-03T03:26:58.528Z,36.40
2019-04-03T03:29:27.842Z,34.20
2019-04-03T03:32:08.021Z,34.40
2019-04-03T03:34:49.504Z,35.90
2019-04-03T03:37:02.733Z,32.47
2019-04-03T03:39:34.054Z,35.13
2019-04-03T03:42:05.184Z,36.87
2019-04-03T03:44:34.434Z,32.00
2019-04-03T03:47:04.972Z,32.47
2019-04-03T03:49:33.474Z,33.83
2019-04-03T03:52:04.087Z,36.10
2019-04-03T03:54:34.325Z,35.47
2019-04-03T03:57:05.263Z,30.27
2019-04-03T03:59:41.775Z,30.43
2019-04-03T04:02:12.448Z,31.60
2019-04-03T04:04:40.479Z,31.57
2019-04-03T04:07:08.723Z,30.90
2019-04-03T04:09:37.106Z,33.20
2019-04-03T04:12:06.671Z,28.87
2019-04-03T04:14:36.099Z,29.73
2019-04-03T04:17:07.860Z,31.50
2019-04-03T04:19:35.604Z,30.40
2019-04-03T04:22:03.887Z,31.40
2019-04-03T04:24:33.966Z,30.17
2019-04-03T04:27:03.406Z,29.83
2019-04-03T04:29:31.805Z,27.00
2019-04-03T04:31:59.969Z,27.73
2019-04-03T04:34:28.321Z,24.47
2019-04-03T04:36:57.716Z,29.03
2019-04-03T04:39:26.636Z,28.50
2019-04-03T04:41:56.340Z,30.40
2019-04-03T04:44:24.036Z,27.60
2019-04-03T04:47:39.323Z,27.00
2019-04-03T04:50:06.947Z,27.97
2019-04-03T04:52:34.823Z,30.03
2019-04-03T04:55:05.055Z,28.07
2019-04-03T04:57:35.900Z,27.57
2019-04-03T05:00:05.851Z,31.53
2019-04-03T05:02:36.143Z,34.57
2019-04-03T05:05:08.740Z,31.53
2019-04-03T05:07:36.314Z,27.53
2019-04-03T05:10:05.835Z,30.17
2019-04-03T05:12:34.660Z,31.43
2019-04-03T05:15:03.039Z,28.83
2019-04-03T05:17:34.497Z,30.93
2019-04-03T05:20:02.858Z,31.03
2019-04-03T05:23:01.612Z,31.77
2019-04-03T05:25:32.787Z,28.57
2019-04-03T05:31:39.034Z,30.93
2019-04-03T05:34:09.412Z,32.43
2019-04-03T05:36:42.310Z,27.63
2019-04-03T05:39:17.206Z,30.67
2019-04-03T05:42:10.311Z,31.87
2019-04-03T05:46:37.067Z,30.50
2019-04-03T05:47:34.103Z,29.00
2019-04-03T05:50:10.246Z,26.53
2019-04-03T05:52:41.848Z,30.57
2019-04-03T05:55:11.236Z,31.27
2019-04-03T05:57:45.744Z,31.77
2019-04-03T06:00:18.375Z,27.20
2019-04-03T06:02:47.677Z,28.43
2019-04-03T06:05:20.131Z,27.47
2019-04-03T06:07:49.377Z,31.50
2019-04-03T06:10:22.629Z,27.13
2019-04-03T06:12:52.626Z,30.23
2019-04-03T06:15:22.567Z,28.57
2019-04-03T06:17:51.234Z,27.53
2019-04-03T06:20:27.157Z,25.93
2019-04-03T06:22:58.457Z,31.10
2019-04-03T06:25:29.994Z,29.13
2019-04-03T06:28:03.238Z,27.80
2019-04-03T06:30:32.077Z,26.40
2019-04-03T06:33:01.965Z,26.83
2019-04-03T06:35:34.032Z,27.80
2019-04-03T06:38:02.365Z,27.30
2019-04-03T06:40:35.136Z,26.00
2019-04-03T06:43:09.553Z,26.80
2019-04-03T06:45:39.579Z,26.47
2019-04-03T06:48:10.688Z,27.23
2019-04-03T06:50:43.034Z,25.43
2019-04-03T06:53:16.573Z,24.97
2019-04-03T06:55:47.509Z,27.27
2019-04-03T06:58:18.396Z,33.60
2019-04-03T07:00:56.236Z,28.37
2019-04-03T07:03:25.289Z,29.50
2019-04-03T07:05:53.671Z,31.63
2019-04-03T07:08:32.598Z,29.00
2019-04-03T07:11:00.760Z,26.20
2019-04-03T07:13:32.898Z,23.47
2019-04-03T07:16:01.618Z,30.07
2019-04-03T07:18:30.484Z,27.10
2019-04-03T07:20:58.953Z,30.40
2019-04-03T07:23:28.979Z,28.37
2019-04-03T07:25:56.906Z,30.80
2019-04-03T07:28:25.296Z,31.70
2019-04-03T07:30:54.179Z,32.60
2019-04-03T07:33:29.421Z,30.43
2019-04-03T07:36:00.763Z,32.67
2019-04-03T07:38:41.683Z,28.43
2019-04-03T07:41:10.185Z,31.60
2019-04-03T07:43:42.633Z,33.23
2019-04-03T07:46:11.123Z,27.30
2019-04-03T07:49:09.114Z,32.10
2019-04-03T07:51:38.121Z,30.57
2019-04-03T07:54:12.251Z,29.73
2019-04-03T07:56:44.678Z,33.43
2019-04-03T07:59:29.443Z,26.43
2019-04-03T08:02:07.539Z,28.63
2019-04-03T08:04:36.679Z,28.23
2019-04-03T08:07:08.361Z,28.50
2019-04-03T08:09:37.340Z,27.43
2019-04-03T08:12:13.531Z,28.57
2019-04-03T08:14:59.314Z,29.80
2019-04-03T08:17:34.117Z,28.90
2019-04-03T08:21:06.487Z,26.53
2019-04-03T08:23:41.290Z,25.60
2019-04-03T08:26:14.774Z,26.10
2019-04-03T08:29:01.042Z,32.47
2019-04-03T08:31:31.232Z,29.37
2019-04-03T08:34:14.883Z,24.97
2019-04-03T08:36:39.455Z,25.80
2019-04-03T08:39:35.606Z,25.97
2019-04-03T08:42:05.257Z,26.03
2019-04-03T08:44:47.103Z,26.90
2019-04-03T08:47:26.827Z,24.43
2019-04-03T08:50:02.502Z,26.73
2019-04-03T08:52:38.986Z,30.23
2019-04-03T08:55:14.127Z,24.20
2019-04-03T08:57:45.095Z,24.90
2019-04-03T09:00:23.148Z,29.90
2019-04-03T09:03:09.820Z,23.20
2019-04-03T09:05:36.086Z,28.00
2019-04-03T09:08:28.929Z,31.60
2019-04-03T09:11:05.470Z,27.00
2019-04-03T09:13:54.381Z,25.23
2019-04-03T09:16:14.735Z,27.03
2019-04-03T09:18:51.580Z,32.97
2019-04-03T09:21:22.436Z,30.10
2019-04-03T09:23:58.422Z,26.50
2019-04-03T09:26:43.092Z,33.87
2019-04-03T09:29:30.072Z,29.33
2019-04-03T09:32:14.776Z,26.87
2019-04-03T09:34:57.220Z,30.43
2019-04-03T09:37:38.806Z,25.67
2019-04-03T09:40:17.916Z,28.90
2019-04-03T09:42:53.699Z,26.07
2019-04-03T09:45:28.215Z,25.93
2019-04-03T09:48:12.701Z,26.87
2019-04-03T09:50:47.485Z,27.63
2019-04-03T09:53:17.068Z,22.23
2019-04-03T09:56:09.290Z,24.57
2019-04-03T09:58:47.091Z,25.67
2019-04-03T10:01:19.756Z,24.90
2019-04-03T10:03:47.879Z,25.10
2019-04-03T10:06:16.232Z,26.53
2019-04-03T10:08:44.284Z,23.90
2019-04-03T10:11:15.532Z,21.53
2019-04-03T10:13:43.265Z,17.83
2019-04-03T10:16:15.261Z,17.00
2019-04-03T10:18:42.470Z,16.17
2019-04-03T10:21:11.102Z,16.03
2019-04-03T10:23:38.687Z,16.10
2019-04-03T10:26:08.684Z,15.20
2019-04-03T10:28:48.667Z,14.47
2019-04-03T10:31:19.246Z,13.40
2019-04-03T10:34:03.129Z,14.37
2019-04-03T10:36:39.594Z,13.70
2019-04-03T10:39:11.311Z,14.20
2019-04-03T10:41:43.827Z,16.70
2019-04-03T10:44:19.898Z,18.97
2019-04-03T10:46:51.265Z,16.53
2019-04-03T10:49:23.826Z,14.83
2019-04-03T10:52:18.355Z,14.67
2019-04-03T10:54:57.808Z,14.77
2019-04-03T10:57:45.059Z,16.57
2019-04-03T11:00:18.055Z,15.33
2019-04-03T11:02:53.543Z,16.07
2019-04-03T11:05:29.964Z,14.27
2019-04-03T11:08:02.115Z,16.57
2019-04-03T11:10:31.996Z,15.73
2019-04-03T11:17:13.365Z,15.03
2019-04-03T11:19:58.081Z,15.97
2019-04-03T11:22:43.319Z,16.10
2019-04-03T11:25:35.178Z,18.23
2019-04-03T11:28:10.636Z,16.97
2019-04-03T11:30:46.789Z,13.87
2019-04-03T11:33:23.441Z,15.20
2019-04-03T11:35:56.439Z,14.93
2019-04-03T11:38:51.322Z,14.07
2019-04-03T11:41:28.088Z,13.57
2019-04-03T11:47:45.819Z,13.30
2019-04-03T11:53:34.602Z,14.57
2019-04-03T11:56:13.076Z,12.27
2019-04-03T12:01:57.609Z,17.17
2019-04-03T12:04:39.061Z,11.37
2019-04-03T12:10:25.798Z,9.80
2019-04-03T12:13:21.801Z,16.03
2019-04-03T12:16:25.905Z,11.00
2019-04-03T12:19:19.286Z,9.60
2019-04-03T12:25:41.979Z,12.17
2019-04-03T12:28:33.667Z,8.67
2019-04-03T12:31:54.099Z,8.93
2019-04-03T12:34:52.598Z,8.13
2019-04-03T12:41:48.129Z,7.80
2019-04-03T12:44:38.070Z,7.97
2019-04-03T12:50:18.738Z,6.10
2019-04-03T12:55:57.713Z,6.77
2019-04-03T13:02:25.930Z,7.17
2019-04-03T13:05:07.246Z,4.73
2019-04-03T13:08:14.267Z,5.93
2019-04-03T13:11:19.955Z,5.60
2019-04-03T13:14:00.255Z,4.97
2019-04-03T13:17:02.665Z,4.93
2019-04-03T13:19:49.266Z,4.67
2019-04-03T13:23:00.992Z,4.13
2019-04-03T13:26:05.273Z,5.97
2019-04-03T13:29:21.645Z,7.83
2019-04-03T13:32:31.651Z,6.03
2019-04-03T13:35:23.654Z,5.77
2019-04-03T14:14:43.341Z,4.33
2019-04-03T14:17:16.259Z,5.67
2019-04-03T14:26:37.648Z,4.57
2019-04-03T14:29:45.339Z,4.50
2019-04-03T14:32:28.689Z,4.43
2019-04-03T21:05:49.998Z,41.47
2019-04-03T21:08:20.526Z,47.40
2019-04-03T21:10:50.903Z,49.57
2019-04-03T21:13:26.123Z,46.87
2019-04-03T21:15:55.150Z,41.30
2019-04-03T21:18:34.836Z,39.70
2019-04-03T21:21:05.887Z,39.27
2019-04-03T21:23:38.375Z,39.07
2019-04-03T21:26:07.500Z,43.00
2019-04-03T21:28:36.153Z,40.37
2019-04-03T21:31:04.866Z,42.00
2019-04-03T21:33:33.912Z,40.93
2019-04-03T21:36:02.622Z,39.23
2019-04-03T21:38:32.376Z,38.30
2019-04-03T21:41:01.978Z,41.77
2019-04-03T21:43:32.081Z,42.20
2019-04-03T21:46:05.063Z,53.10
2019-04-03T21:48:33.962Z,51.27
2019-04-03T21:51:03.422Z,48.23
2019-04-03T21:53:32.108Z,48.20
2019-04-03T21:56:02.624Z,48.77
2019-04-03T21:58:31.506Z,44.27
2019-04-03T22:01:17.568Z,49.57
2019-04-03T22:03:50.634Z,47.40
2019-04-03T22:06:19.311Z,43.97
2019-04-03T22:08:47.764Z,53.80
2019-04-03T22:11:16.424Z,50.93
2019-04-03T22:13:44.570Z,52.57
2019-04-03T22:16:13.567Z,50.17
2019-04-03T22:18:42.057Z,47.47
2019-04-03T22:21:10.458Z,49.17
2019-04-03T22:23:44.435Z,44.83
2019-04-03T22:26:15.052Z,47.07
2019-04-03T22:28:44.156Z,44.37
2019-04-03T22:31:14.299Z,47.50
2019-04-03T22:33:42.811Z,53.13
2019-04-03T22:36:11.305Z,56.60
2019-04-03T22:42:14.713Z,58.67
2019-04-03T22:44:54.104Z,68.00
2019-04-03T22:47:34.175Z,66.90
2019-04-03T22:50:17.927Z,70.37
2019-04-03T23:01:54.011Z,66.10
2019-04-03T23:04:22.263Z,61.13
2019-04-03T23:06:50.347Z,57.03
2019-04-03T23:09:19.774Z,52.13
2019-04-03T23:11:49.767Z,48.53
2019-04-03T23:14:19.454Z,39.40
2019-04-03T23:16:47.507Z,36.73
2019-04-03T23:19:17.907Z,39.20
2019-04-03T23:21:46.473Z,39.97
2019-04-03T23:24:14.320Z,39.87
2019-04-03T23:26:42.818Z,40.63
2019-04-03T23:29:11.413Z,36.87
2019-04-03T23:31:44.544Z,40.70
2019-04-03T23:34:09.390Z,40.77
2019-04-03T23:36:37.794Z,41.10
2019-04-03T23:39:07.890Z,38.00
2019-04-03T23:41:36.576Z,37.33
2019-04-03T23:44:04.840Z,33.90
2019-04-03T23:46:33.757Z,31.63
2019-04-03T23:49:01.417Z,34.80
2019-04-03T23:51:29.929Z,30.83
2019-04-03T23:53:58.018Z,35.07
2019-04-03T23:56:26.793Z,35.33
2019-04-03T23:58:54.729Z,34.00
